Time;durP1;ratioP1;P1;durP2;ratioP2;P2;SDS_P1;SDS_P2;PMS_P1;PMS_P2;Temp;Humidity;BMP_temperature;BMP_pressure;BME280_temperature;BME280_humidity;BME280_pressure;Samples;Min_cycle;Max_cycle;Signal;HPM_P1;HPM_P2
2022/09/04 00:00:51;;;;;;;25.17;13.00;;;;;;;;;;6192205;28;20046;-60
2022/09/04 00:04:10;;;;;;;;;;;;;;;;;;6192700;28;20136;-65
2022/09/04 00:07:26;;;;;;;27.73;13.18;;;;;;;;;;6192218;28;19925;-64
2022/09/04 00:10:28;;;;;;;25.85;13.30;;;;;;;;;;6192114;28;20133;-65
2022/09/04 00:13:38;;;;;;;28.25;13.95;;;;;;;;;;6192243;28;20038;-64
2022/09/04 00:17:00;;;;;;;30.88;14.15;;;;;;;;;;6191616;28;20137;-62
2022/09/04 00:20:12;;;;;;;32.37;13.63;;;;;;;;;;6182090;28;20410;-63
2022/09/04 00:23:17;;;;;;;;;;;;;;;;;;6185908;28;20318;-63
2022/09/04 00:26:37;;;;;;;24.35;12.45;;;;;;;;;;6186540;28;19969;-66
2022/09/04 00:29:51;;;;;;;28.05;13.55;;;;;;;;;;6186209;28;20427;-62
2022/09/04 00:33:05;;;;;;;28.80;13.05;;;;;;;;;;6180774;28;20058;-65
2022/09/04 00:36:06;;;;;;;29.67;14.23;;;;;;;;;;6183357;28;20138;-61
2022/09/04 00:39:38;;;;;;;29.77;14.43;;;;;;;;;;6190089;28;20099;-61
2022/09/04 00:43:08;;;;;;;27.63;13.98;;;;;;;;;;6190787;28;20511;-61
2022/09/04 00:46:27;;;;;;;27.23;14.52;;;;;;;;;;6188760;28;20508;-65
2022/09/04 00:49:50;;;;;;;31.55;15.27;;;;;;;;;;6187994;28;20573;-62
2022/09/04 00:53:20;;;;;;;30.02;14.95;;;;;;;;;;6185810;28;20098;-64
2022/09/04 00:56:41;;;;;;;30.95;15.23;;;;;;;;;;6180294;28;20074;-61
2022/09/04 00:59:42;;;;;;;31.60;15.17;;;;;;;;;;6188517;28;20062;-65
2022/09/04 01:02:48;;;;;;;29.65;14.40;;;;;;;;;;6182338;28;20658;-63
2022/09/04 01:06:13;;;;;;;29.38;14.50;;;;;;;;;;6182407;28;20070;-61
2022/09/04 01:09:39;;;;;;;28.20;13.95;;;;;;;;;;6188390;28;20145;-64
2022/09/04 01:12:58;;;;;;;30.98;13.30;;;;;;;;;;6184779;28;20034;-60
2022/09/04 01:16:09;;;;;;;26.55;13.75;;;;;;;;;;6193065;28;20425;-61
2022/09/04 01:19:39;;;;;;;28.77;13.98;;;;;;;;;;6197303;28;20053;-63
2022/09/04 01:22:55;;;;;;;25.98;13.32;;;;;;;;;;6182995;28;20049;-63
2022/09/04 01:26:17;;;;;;;26.30;13.27;;;;;;;;;;6183084;28;20050;-63
2022/09/04 01:29:30;;;;;;;26.40;12.77;;;;;;;;;;6182440;28;20076;-65
2022/09/04 01:32:39;;;;;;;24.73;12.27;;;;;;;;;;6182704;28;20485;-63
2022/09/04 01:36:26;;;;;;;22.17;12.15;;;;;;;;;;6183709;28;20065;-62
2022/09/04 01:39:30;;;;;;;25.50;12.90;;;;;;;;;;6133385;28;20050;-64
2022/09/04 01:42:53;;;;;;;24.75;12.43;;;;;;;;;;6186416;28;20117;-61
2022/09/04 01:46:48;;;;;;;24.25;12.75;;;;;;;;;;6187686;28;20137;-67
2022/09/04 01:50:09;;;;;;;24.77;12.13;;;;;;;;;;6158146;28;20133;-64
2022/09/04 01:53:16;;;;;;;20.25;12.05;;;;;;;;;;6191652;28;20150;-64
2022/09/04 01:56:42;;;;;;;28.20;13.85;;;;;;;;;;6195698;28;20056;-62
2022/09/04 01:59:49;;;;;;;23.80;12.45;;;;;;;;;;6183846;28;20395;-61
2022/09/04 02:02:51;;;;;;;26.27;13.57;;;;;;;;;;6194599;28;20512;-65
2022/09/04 02:06:03;;;;;;;24.08;12.25;;;;;;;;;;6192167;28;21426;-66
2022/09/04 02:09:19;;;;;;;24.80;13.02;;;;;;;;;;6188674;28;20053;-67
2022/09/04 02:12:34;;;;;;;24.10;11.95;;;;;;;;;;6189048;28;20420;-63
2022/09/04 02:15:48;;;;;;;25.70;13.55;;;;;;;;;;6189129;28;20050;-65
2022/09/04 02:19:01;;;;;;;27.33;12.73;;;;;;;;;;6189374;28;20038;-65
2022/09/04 02:22:15;;;;;;;27.95;12.63;;;;;;;;;;6187587;28;20133;-65
2022/09/04 02:25:29;;;;;;;26.42;14.02;;;;;;;;;;6184929;28;20049;-65
2022/09/04 02:28:40;;;;;;;28.20;13.27;;;;;;;;;;6185340;28;20049;-62
2022/09/04 02:32:00;;;;;;;31.25;14.48;;;;;;;;;;6187385;28;20050;-65
2022/09/04 02:35:21;;;;;;;30.73;14.32;;;;;;;;;;6187172;28;20461;-61
2022/09/04 02:38:52;;;;;;;31.55;14.15;;;;;;;;;;6188644;28;20051;-65
2022/09/04 02:42:09;;;;;;;34.95;14.27;;;;;;;;;;6188556;28;20046;-64
2022/09/04 02:45:21;;;;;;;32.30;14.38;;;;;;;;;;6187424;28;20137;-61
2022/09/04 02:48:44;;;;;;;31.60;14.48;;;;;;;;;;6186809;28;20049;-65
2022/09/04 02:51:44;;;;;;;30.98;15.15;;;;;;;;;;6188497;28;20058;-64
2022/09/04 02:55:00;;;;;;;31.92;15.25;;;;;;;;;;6187819;28;20038;-61
2022/09/04 02:58:27;;;;;;;31.17;14.95;;;;;;;;;;6191420;28;20556;-63
2022/09/04 03:01:41;;;;;;;31.95;14.40;;;;;;;;;;6187006;28;20069;-64
2022/09/04 03:04:56;;;;;;;32.80;15.02;;;;;;;;;;6186610;28;20043;-59
2022/09/04 03:08:23;;;;;;;33.38;14.75;;;;;;;;;;6187730;28;20046;-61
2022/09/04 03:11:32;;;;;;;30.08;14.98;;;;;;;;;;6185954;28;20056;-65
2022/09/04 03:14:45;;;;;;;35.25;15.13;;;;;;;;;;6185079;28;20043;-65
2022/09/04 03:18:04;;;;;;;38.95;15.88;;;;;;;;;;6186489;28;20061;-64
2022/09/04 03:21:11;;;;;;;32.65;15.18;;;;;;;;;;6185818;28;20068;-66
2022/09/04 03:24:16;;;;;;;30.00;14.07;;;;;;;;;;6187885;28;20092;-64
2022/09/04 03:27:18;;;;;;;29.20;13.93;;;;;;;;;;6187292;28;20130;-65
2022/09/04 03:30:18;;;;;;;34.45;15.48;;;;;;;;;;6187124;28;20042;-67
2022/09/04 03:33:38;;;;;;;29.67;14.35;;;;;;;;;;6187066;28;20065;-63
2022/09/04 03:36:59;;;;;;;31.08;14.82;;;;;;;;;;6185740;28;20528;-67
2022/09/04 03:40:25;;;;;;;29.80;14.63;;;;;;;;;;6185998;28;20145;-65
2022/09/04 03:43:45;;;;;;;32.30;13.50;;;;;;;;;;6187880;28;20552;-65
2022/09/04 03:47:37;;;;;;;32.28;14.82;;;;;;;;;;6190397;28;20137;-66
2022/09/04 03:50:58;;;;;;;28.08;14.52;;;;;;;;;;6145607;28;20067;-65
2022/09/04 03:54:14;;;;;;;29.80;14.47;;;;;;;;;;6163757;28;20150;-65
2022/09/04 03:57:42;;;;;;;31.88;14.45;;;;;;;;;;6210330;28;20053;-64
2022/09/04 04:01:11;;;;;;;28.85;13.75;;;;;;;;;;6211041;28;20904;-68
2022/09/04 04:04:38;;;;;;;28.40;13.30;;;;;;;;;;6196676;28;20050;-68
2022/09/04 04:07:57;;;;;;;22.45;12.48;;;;;;;;;;6209465;28;20172;-68
2022/09/04 04:11:19;;;;;;;28.00;13.45;;;;;;;;;;6210300;28;20046;-64
2022/09/04 04:14:44;;;;;;;28.50;13.65;;;;;;;;;;6209388;28;20073;-65
2022/09/04 04:18:01;;;;;;;24.08;12.70;;;;;;;;;;6208677;28;20512;-65
2022/09/04 04:21:32;;;;;;;25.75;13.35;;;;;;;;;;6211982;28;20099;-68
2022/09/04 04:25:10;;;;;;;27.02;13.57;;;;;;;;;;6211359;28;20057;-67
2022/09/04 04:28:23;;;;;;;27.63;13.60;;;;;;;;;;6208523;28;20523;-64
2022/09/04 04:31:44;;;;;;;29.95;13.90;;;;;;;;;;6209515;28;20046;-68
2022/09/04 04:34:53;;;;;;;27.23;13.55;;;;;;;;;;6211044;28;20060;-61
2022/09/04 04:38:18;;;;;;;27.90;13.02;;;;;;;;;;6208265;28;20058;-62
2022/09/04 04:41:22;;;;;;;25.90;13.07;;;;;;;;;;6209454;28;20196;-66
2022/09/04 04:48:40;;;;;;;30.13;14.50;;;;;;;;;;6210657;28;20507;-64
2022/09/04 04:52:01;;;;;;;27.67;14.27;;;;;;;;;;6188139;28;20145;-62
2022/09/04 04:55:11;;;;;;;28.00;14.00;;;;;;;;;;6184516;28;20137;-65
2022/09/04 04:58:53;;;;;;;27.30;13.35;;;;;;;;;;6185492;28;20328;-63
2022/09/04 05:02:20;;;;;;;27.63;13.68;;;;;;;;;;6185447;28;20536;-66
2022/09/04 05:05:48;;;;;;;24.30;11.10;;;;;;;;;;6185224;28;20042;-59
2022/09/04 05:09:18;;;;;;;21.73;10.43;;;;;;;;;;6180324;28;20134;-64
2022/09/04 05:12:56;;;;;;;25.05;10.95;;;;;;;;;;6184589;28;20608;-67
2022/09/04 05:15:56;;;;;;;23.33;10.93;;;;;;;;;;6184531;28;20049;-66
2022/09/04 05:19:37;;;;;;;22.77;10.73;;;;;;;;;;6188949;28;20046;-62
2022/09/04 05:22:45;;;;;;;25.77;10.98;;;;;;;;;;6183827;28;20188;-65
2022/09/04 05:26:11;;;;;;;22.80;11.77;;;;;;;;;;6184337;28;20505;-64
2022/09/04 05:29:29;;;;;;;22.42;12.10;;;;;;;;;;6191708;28;20501;-66
2022/09/04 05:32:59;;;;;;;23.73;10.80;;;;;;;;;;6201973;28;20056;-65
2022/09/04 05:36:06;;;;;;;27.25;12.00;;;;;;;;;;6193130;28;20054;-65
2022/09/04 05:39:57;;;;;;;27.30;12.93;;;;;;;;;;6191899;28;20446;-65
2022/09/04 05:43:17;;;;;;;27.05;12.32;;;;;;;;;;6192063;28;20054;-62
2022/09/04 05:46:55;;;;;;;25.63;12.75;;;;;;;;;;6192362;28;20050;-65
2022/09/04 05:50:20;;;;;;;28.85;13.25;;;;;;;;;;6194494;28;20050;-65
2022/09/04 05:53:30;;;;;;;27.50;11.93;;;;;;;;;;6199714;28;20065;-64
2022/09/04 05:56:44;;;;;;;29.35;13.00;;;;;;;;;;6198793;28;20040;-65
2022/09/04 06:00:02;;;;;;;24.58;12.45;;;;;;;;;;6188658;28;20038;-64
2022/09/04 06:03:48;;;;;;;22.80;11.48;;;;;;;;;;6191729;28;20496;-65
2022/09/04 06:06:58;;;;;;;25.17;12.55;;;;;;;;;;6172370;28;21063;-65
2022/09/04 06:10:15;;;;;;;26.52;11.68;;;;;;;;;;6187896;28;20178;-63
2022/09/04 06:13:28;;;;;;;30.60;12.45;;;;;;;;;;6201666;28;20580;-64
2022/09/04 06:16:59;;;;;;;23.08;11.55;;;;;;;;;;6195737;28;20046;-64
2022/09/04 06:20:37;;;;;;;23.33;11.57;;;;;;;;;;6194800;28;20193;-60
2022/09/04 06:23:46;;;;;;;27.65;12.30;;;;;;;;;;6194628;28;20046;-62
2022/09/04 06:26:49;;;;;;;25.52;11.85;;;;;;;;;;6192372;28;20053;-60
2022/09/04 06:30:09;;;;;;;26.15;11.77;;;;;;;;;;6191958;28;20145;-61
2022/09/04 06:33:15;;;;;;;24.15;12.25;;;;;;;;;;6191806;28;20043;-64
2022/09/04 06:36:30;;;;;;;25.45;11.45;;;;;;;;;;6190839;28;20148;-61
2022/09/04 06:40:06;;;;;;;24.73;12.30;;;;;;;;;;6190532;28;20043;-64
2022/09/04 06:43:38;;;;;;;20.65;11.60;;;;;;;;;;6178714;28;20070;-63
2022/09/04 06:46:49;;;;;;;25.77;12.93;;;;;;;;;;6190432;28;20068;-65
2022/09/04 06:50:05;;;;;;;23.20;11.90;;;;;;;;;;6190285;28;20413;-65
2022/09/04 06:53:12;;;;;;;24.02;11.68;;;;;;;;;;6192127;28;20050;-65
2022/09/04 06:56:25;;;;;;;24.08;12.05;;;;;;;;;;6192475;28;20042;-60
2022/09/04 06:59:40;;;;;;;25.63;11.65;;;;;;;;;;6195096;28;20493;-67
2022/09/04 07:02:51;;;;;;;22.35;11.65;;;;;;;;;;6200348;28;20064;-59
2022/09/04 07:06:09;;;;;;;18.70;10.00;;;;;;;;;;6204363;28;20125;-65
2022/09/04 07:09:27;;;;;;;23.52;11.25;;;;;;;;;;6190602;28;20393;-62
2022/09/04 07:12:52;;;;;;;24.15;11.65;;;;;;;;;;6192472;28;20506;-60
2022/09/04 07:16:33;;;;;;;19.98;10.30;;;;;;;;;;6204025;28;20073;-64
2022/09/04 07:20:07;;;;;;;21.08;10.63;;;;;;;;;;6192869;28;20449;-66
2022/09/04 07:23:35;;;;;;;18.95;9.57;;;;;;;;;;6189989;28;20169;-60
2022/09/04 07:26:48;;;;;;;18.33;10.10;;;;;;;;;;6192278;28;20050;-62
2022/09/04 07:29:57;;;;;;;19.90;10.52;;;;;;;;;;6192540;28;20527;-61
2022/09/04 07:33:05;;;;;;;19.38;10.07;;;;;;;;;;6192879;28;20150;-62
2022/09/04 07:36:24;;;;;;;20.15;10.38;;;;;;;;;;6193181;28;20145;-62
2022/09/04 07:39:36;;;;;;;20.15;9.52;;;;;;;;;;6193132;28;20054;-64
2022/09/04 07:43:11;;;;;;;19.50;9.63;;;;;;;;;;6193341;28;20153;-75
2022/09/04 07:46:16;;;;;;;19.23;10.25;;;;;;;;;;6181102;28;20054;-67
2022/09/04 07:49:28;;;;;;;21.13;10.65;;;;;;;;;;6188445;28;20050;-61
2022/09/04 07:52:29;;;;;;;;;;;;;;;;;;6216869;28;20062;-62
2022/09/04 07:55:45;;;;;;;18.27;9.20;;;;;;;;;;6215996;28;20017;-61
2022/09/04 07:59:04;;;;;;;21.90;9.38;;;;;;;;;;6212752;28;20741;-63
2022/09/04 08:02:19;;;;;;;16.42;8.70;;;;;;;;;;6211555;28;20103;-58
2022/09/04 08:05:56;;;;;;;14.73;8.48;;;;;;;;;;6210851;28;20045;-52
2022/09/04 08:09:21;;;;;;;15.57;8.38;;;;;;;;;;6214815;28;20520;-58
2022/09/04 08:12:44;;;;;;;16.02;8.55;;;;;;;;;;6215357;28;20058;-56
2022/09/04 08:15:57;;;;;;;16.60;8.23;;;;;;;;;;6209901;28;20148;-58
2022/09/04 08:19:28;;;;;;;15.93;8.40;;;;;;;;;;6200709;28;20034;-57
2022/09/04 08:23:04;;;;;;;13.63;8.27;;;;;;;;;;6209854;28;20133;-58
2022/09/04 08:26:38;;;;;;;15.02;8.65;;;;;;;;;;6181120;28;20280;-58
2022/09/04 08:29:39;;;;;;;16.38;9.23;;;;;;;;;;6214852;28;20088;-61
2022/09/04 08:33:10;;;;;;;15.50;8.00;;;;;;;;;;6215754;28;20046;-56
2022/09/04 08:36:40;;;;;;;15.33;9.13;;;;;;;;;;6214651;28;20145;-62
2022/09/04 08:40:18;;;;;;;19.58;8.88;;;;;;;;;;6216952;28;20057;-62
2022/09/04 08:43:50;;;;;;;14.68;7.97;;;;;;;;;;6212773;28;20048;-56
2022/09/04 08:47:34;;;;;;;14.75;8.38;;;;;;;;;;6205728;28;20070;-56
2022/09/04 08:51:16;;;;;;;16.92;7.97;;;;;;;;;;6206169;28;20148;-60
2022/09/04 08:54:42;;;;;;;17.20;8.80;;;;;;;;;;6182205;28;20050;-56
2022/09/04 08:58:07;;;;;;;15.13;9.02;;;;;;;;;;6139570;29;20422;-56
2022/09/04 09:01:40;;;;;;;17.17;9.18;;;;;;;;;;6136843;28;20134;-55
2022/09/04 09:05:02;;;;;;;18.77;9.80;;;;;;;;;;6138400;29;20594;-55
2022/09/04 09:08:21;;;;;;;17.02;9.18;;;;;;;;;;6137570;29;20039;-55
2022/09/04 09:11:43;;;;;;;18.15;9.43;;;;;;;;;;6136484;28;20126;-57
2022/09/04 09:14:57;;;;;;;18.00;9.52;;;;;;;;;;6141281;28;20054;-53
2022/09/04 09:18:10;;;;;;;15.25;8.48;;;;;;;;;;6140252;29;20146;-63
2022/09/04 09:21:23;;;;;;;17.02;8.88;;;;;;;;;;6139840;29;20051;-62
2022/09/04 09:24:45;;;;;;;16.08;8.77;;;;;;;;;;6140399;28;20055;-61
2022/09/04 09:28:02;;;;;;;18.00;9.05;;;;;;;;;;6155635;28;20058;-64
2022/09/04 09:31:25;;;;;;;18.27;9.35;;;;;;;;;;6191223;28;20141;-54
2022/09/04 09:34:52;;;;;;;17.10;9.38;;;;;;;;;;6192024;28;20042;-51
2022/09/04 09:38:18;;;;;;;17.33;9.30;;;;;;;;;;6191302;28;20192;-56
2022/09/04 09:41:50;;;;;;;19.77;9.30;;;;;;;;;;6190796;28;20050;-59
2022/09/04 09:45:34;;;;;;;17.73;9.82;;;;;;;;;;6190877;28;20046;-56
2022/09/04 09:49:04;;;;;;;20.05;11.52;;;;;;;;;;6191190;28;20383;-60
2022/09/04 09:52:26;;;;;;;25.00;12.65;;;;;;;;;;6189825;28;20074;-69
2022/09/04 09:56:08;;;;;;;24.65;11.88;;;;;;;;;;6174391;28;20044;-66
2022/09/04 09:59:38;;;;;;;22.52;11.30;;;;;;;;;;6171985;28;20882;-61
2022/09/04 10:03:06;;;;;;;24.00;11.65;;;;;;;;;;6176814;28;20045;-69
2022/09/04 10:06:46;;;;;;;23.25;11.43;;;;;;;;;;6188344;28;20560;-68
2022/09/04 10:10:00;;;;;;;23.58;11.95;;;;;;;;;;6175478;28;20041;-61
2022/09/04 10:13:12;;;;;;;26.40;12.68;;;;;;;;;;6188421;28;20061;-71
2022/09/04 10:16:45;;;;;;;25.08;12.13;;;;;;;;;;6192923;28;20062;-72
2022/09/04 10:19:54;;;;;;;26.75;13.00;;;;;;;;;;6191785;28;20069;-71
2022/09/04 10:23:04;;;;;;;24.85;11.60;;;;;;;;;;6189228;28;20057;-64
2022/09/04 10:26:38;;;;;;;23.70;12.30;;;;;;;;;;6193935;28;20137;-61
2022/09/04 10:30:03;;;;;;;22.55;11.85;;;;;;;;;;6192314;28;20110;-63
2022/09/04 10:33:30;;;;;;;22.98;11.85;;;;;;;;;;6190251;28;20062;-60
2022/09/04 10:36:58;;;;;;;23.02;12.40;;;;;;;;;;6191132;28;20585;-62
2022/09/04 10:40:43;;;;;;;25.50;12.73;;;;;;;;;;6190345;28;20046;-62
2022/09/04 10:43:43;;;;;;;23.02;12.05;;;;;;;;;;6191398;28;20046;-60
2022/09/04 10:47:02;;;;;;;24.83;11.88;;;;;;;;;;6192811;28;20417;-60
2022/09/04 10:50:19;;;;;;;25.05;13.27;;;;;;;;;;6191540;28;20060;-60
2022/09/04 10:53:51;;;;;;;22.50;12.20;;;;;;;;;;6191787;28;20963;-55
2022/09/04 10:57:00;;;;;;;25.67;13.13;;;;;;;;;;6191342;28;20050;-61
2022/09/04 11:00:21;;;;;;;24.73;13.23;;;;;;;;;;6193092;28;20296;-54
2022/09/04 11:03:53;;;;;;;23.52;12.05;;;;;;;;;;6188472;28;20155;-56
2022/09/04 11:07:16;;;;;;;;;;;;;;;;;;6185668;28;20528;-56
2022/09/04 11:10:19;;;;;;;;;;;;;;;;;;6181721;28;19921;-53
2022/09/04 11:13:39;;;;;;;23.65;12.48;;;;;;;;;;6187749;28;19928;-54
2022/09/04 11:17:08;;;;;;;29.02;13.23;;;;;;;;;;6189072;28;20430;-57
2022/09/04 11:20:46;;;;;;;25.30;12.75;;;;;;;;;;6193466;28;20073;-54
2022/09/04 11:24:14;;;;;;;23.52;12.35;;;;;;;;;;6181959;28;20418;-57
2022/09/04 11:27:20;;;;;;;27.45;13.93;;;;;;;;;;6181469;28;20058;-52
2022/09/04 11:30:33;;;;;;;41.10;21.05;;;;;;;;;;6184022;28;20102;-51
2022/09/04 11:34:00;;;;;;;28.85;15.95;;;;;;;;;;6180646;28;20058;-52
2022/09/04 11:37:55;;;;;;;28.05;14.30;;;;;;;;;;6185062;28;20073;-54
2022/09/04 11:41:08;;;;;;;27.33;14.77;;;;;;;;;;6184781;28;20052;-51
2022/09/04 11:44:59;;;;;;;28.65;14.07;;;;;;;;;;6180634;28;20105;-54
2022/09/04 11:48:18;;;;;;;27.30;14.10;;;;;;;;;;6173174;28;20220;-58
2022/09/04 11:51:42;;;;;;;28.50;14.20;;;;;;;;;;6187820;28;20054;-58
2022/09/04 11:54:52;;;;;;;32.72;14.52;;;;;;;;;;6184376;28;20171;-55
2022/09/04 11:58:27;;;;;;;26.98;14.43;;;;;;;;;;6184521;28;20417;-55
2022/09/04 12:01:55;;;;;;;28.08;14.10;;;;;;;;;;6138746;28;20050;-54
2022/09/04 12:04:56;;;;;;;28.55;14.77;;;;;;;;;;6182317;28;20050;-61
2022/09/04 12:08:10;;;;;;;28.75;14.55;;;;;;;;;;6184994;28;20412;-61
2022/09/04 12:11:52;;;;;;;43.42;24.13;;;;;;;;;;6184349;28;20501;-54
2022/09/04 12:15:11;;;;;;;27.17;14.05;;;;;;;;;;6184684;28;20137;-55
2022/09/04 12:18:50;;;;;;;27.45;13.55;;;;;;;;;;6177943;28;20506;-53
2022/09/04 12:22:07;;;;;;;28.60;13.60;;;;;;;;;;6186660;28;20050;-54
2022/09/04 12:25:15;;;;;;;29.75;14.50;;;;;;;;;;6180381;28;20510;-58
2022/09/04 12:28:51;;;;;;;28.02;14.07;;;;;;;;;;6177213;28;20084;-51
2022/09/04 12:32:14;;;;;;;30.40;15.35;;;;;;;;;;6169986;28;20058;-55
2022/09/04 12:35:38;;;;;;;29.85;15.75;;;;;;;;;;6180448;28;20957;-61
2022/09/04 12:39:15;;;;;;;32.33;16.00;;;;;;;;;;6174088;28;20480;-57
2022/09/04 12:42:47;;;;;;;30.30;15.60;;;;;;;;;;6182751;28;20046;-57
2022/09/04 12:46:13;;;;;;;31.25;15.32;;;;;;;;;;6178584;28;20625;-60
2022/09/04 12:49:17;;;;;;;31.73;14.93;;;;;;;;;;6177731;28;20176;-52
2022/09/04 12:52:47;;;;;;;27.63;14.35;;;;;;;;;;6178987;28;20062;-56
2022/09/04 12:56:02;;;;;;;28.65;14.70;;;;;;;;;;6176780;28;20054;-51
2022/09/04 12:59:40;;;;;;;26.60;14.07;;;;;;;;;;6179280;28;20461;-60
2022/09/04 13:03:29;;;;;;;25.30;13.93;;;;;;;;;;6186938;28;20092;-58
2022/09/04 13:06:38;;;;;;;28.90;13.32;;;;;;;;;;6142951;28;20047;-54
2022/09/04 13:10:21;;;;;;;25.77;13.27;;;;;;;;;;6186635;28;20056;-56
2022/09/04 13:13:34;;;;;;;25.83;14.10;;;;;;;;;;6178891;28;20136;-52
2022/09/04 13:16:41;;;;;;;25.08;13.95;;;;;;;;;;6186009;28;20132;-56
2022/09/04 13:20:00;;;;;;;24.48;13.30;;;;;;;;;;6186060;28;20041;-56
2022/09/04 13:23:19;;;;;;;28.60;13.73;;;;;;;;;;6188260;28;20146;-54
2022/09/04 13:26:39;;;;;;;27.98;14.10;;;;;;;;;;6191000;28;20050;-58
2022/09/04 13:29:45;;;;;;;28.15;14.00;;;;;;;;;;6190665;28;20149;-61
2022/09/04 13:32:49;;;;;;;27.85;14.23;;;;;;;;;;6180715;28;20050;-59
2022/09/04 13:36:02;;;;;;;25.98;14.88;;;;;;;;;;6180073;28;20064;-59
2022/09/04 13:39:15;;;;;;;26.65;14.07;;;;;;;;;;6179181;28;20580;-62
2022/09/04 13:42:28;;;;;;;26.48;14.57;;;;;;;;;;6182098;28;20054;-59
2022/09/04 13:45:37;;;;;;;27.52;15.73;;;;;;;;;;6187066;28;20616;-55
2022/09/04 13:48:41;;;;;;;27.48;14.10;;;;;;;;;;6186837;28;20469;-63
2022/09/04 13:51:53;;;;;;;24.60;14.10;;;;;;;;;;6207715;28;20057;-65
2022/09/04 13:54:55;;;;;;;22.65;13.07;;;;;;;;;;6215809;28;20144;-56
2022/09/04 13:58:00;;;;;;;26.63;14.05;;;;;;;;;;6217609;28;20075;-66
2022/09/04 14:01:05;;;;;;;21.67;12.05;;;;;;;;;;6213517;28;20103;-68
2022/09/04 14:04:10;;;;;;;22.63;12.63;;;;;;;;;;6211001;28;20092;-68
2022/09/04 14:07:23;;;;;;;19.60;11.77;;;;;;;;;;6207430;28;20091;-68
2022/09/04 14:10:41;;;;;;;22.00;12.23;;;;;;;;;;6213029;28;20054;-67
2022/09/04 14:14:11;;;;;;;21.40;12.25;;;;;;;;;;6207592;28;20560;-69
2022/09/04 14:17:12;;;;;;;20.10;12.05;;;;;;;;;;6212129;28;20200;-61
2022/09/04 14:20:24;;;;;;;20.20;11.27;;;;;;;;;;6209719;28;20050;-65
2022/09/04 14:23:54;;;;;;;19.38;11.80;;;;;;;;;;6211166;28;20053;-61
2022/09/04 14:27:09;;;;;;;20.70;11.05;;;;;;;;;;6186874;28;20057;-66
2022/09/04 14:30:23;;;;;;;18.70;11.88;;;;;;;;;;6208188;28;20061;-66
2022/09/04 14:33:34;;;;;;;20.67;11.93;;;;;;;;;;6210382;28;20063;-61
2022/09/04 14:37:06;;;;;;;22.52;11.98;;;;;;;;;;6207843;28;21533;-56
2022/09/04 14:40:39;;;;;;;19.85;11.65;;;;;;;;;;6215035;28;20488;-62
2022/09/04 14:44:31;;;;;;;20.83;11.93;;;;;;;;;;6207688;28;20049;-61
2022/09/04 14:47:43;;;;;;;18.77;10.38;;;;;;;;;;6213797;28;20045;-62
2022/09/04 14:50:47;;;;;;;16.83;10.43;;;;;;;;;;6206746;28;20453;-61
2022/09/04 14:53:54;;;;;;;17.70;10.43;;;;;;;;;;6190982;28;20192;-62
2022/09/04 14:57:43;;;;;;;18.95;10.88;;;;;;;;;;6186997;28;20054;-59
2022/09/04 15:00:57;;;;;;;16.75;10.30;;;;;;;;;;6189998;28;20104;-63
2022/09/04 15:04:21;;;;;;;17.52;10.45;;;;;;;;;;6194261;28;20085;-63
2022/09/04 15:07:33;;;;;;;22.20;11.38;;;;;;;;;;6186494;28;20440;-60
2022/09/04 15:10:48;;;;;;;18.00;11.23;;;;;;;;;;6194141;28;20057;-62
2022/09/04 15:13:58;;;;;;;16.35;10.32;;;;;;;;;;6190684;28;20144;-63
2022/09/04 15:17:04;;;;;;;18.65;10.95;;;;;;;;;;6187589;28;20088;-63
2022/09/04 15:20:13;;;;;;;16.80;10.18;;;;;;;;;;6190005;28;20049;-62
2022/09/04 15:23:36;;;;;;;16.70;10.80;;;;;;;;;;6185037;28;20544;-63
2022/09/04 15:26:50;;;;;;;18.48;10.57;;;;;;;;;;6186220;28;20621;-59
2022/09/04 15:29:51;;;;;;;16.23;11.55;;;;;;;;;;6188236;28;20155;-62
2022/09/04 15:33:09;;;;;;;18.17;10.87;;;;;;;;;;6188530;28;20046;-62
2022/09/04 15:36:22;;;;;;;19.10;11.32;;;;;;;;;;6191652;28;20753;-63
2022/09/04 15:39:30;;;;;;;23.08;12.32;;;;;;;;;;6190663;28;20238;-61
2022/09/04 15:42:57;;;;;;;23.50;11.93;;;;;;;;;;6186724;28;20058;-61
2022/09/04 15:46:05;;;;;;;18.77;11.60;;;;;;;;;;6176453;28;20060;-58
2022/09/04 15:49:28;;;;;;;24.52;12.23;;;;;;;;;;6186174;28;20543;-54
2022/09/04 15:52:35;;;;;;;20.77;12.02;;;;;;;;;;6205251;28;20050;-60
2022/09/04 15:55:45;;;;;;;19.92;12.18;;;;;;;;;;6206555;28;20116;-58
2022/09/04 15:59:00;;;;;;;21.15;12.45;;;;;;;;;;6201093;28;20510;-57
2022/09/04 16:02:10;;;;;;;28.00;17.30;;;;;;;;;;6205635;28;20088;-62
2022/09/04 16:05:26;;;;;;;20.52;12.68;;;;;;;;;;6210969;28;20133;-62
2022/09/04 16:08:34;;;;;;;18.52;11.50;;;;;;;;;;6202410;28;20038;-60
2022/09/04 16:11:41;;;;;;;18.63;11.13;;;;;;;;;;6209035;28;20060;-63
2022/09/04 16:15:03;;;;;;;18.42;11.65;;;;;;;;;;6205559;28;20153;-59
2022/09/04 16:18:19;;;;;;;21.48;11.77;;;;;;;;;;6213081;28;20136;-61
2022/09/04 16:21:43;;;;;;;23.70;13.98;;;;;;;;;;6212101;28;20076;-65
2022/09/04 16:24:46;;;;;;;22.30;13.05;;;;;;;;;;6214111;28;20144;-75
2022/09/04 16:27:52;;;;;;;23.55;12.82;;;;;;;;;;6206497;28;20053;-66
2022/09/04 16:30:55;;;;;;;23.17;12.95;;;;;;;;;;6211399;28;20133;-68
2022/09/04 16:34:00;;;;;;;21.92;12.35;;;;;;;;;;6210737;28;20052;-63
2022/09/04 16:37:08;;;;;;;23.52;12.93;;;;;;;;;;6213314;28;20835;-68
2022/09/04 16:40:28;;;;;;;19.55;12.65;;;;;;;;;;6214659;28;20068;-65
2022/09/04 16:43:33;;;;;;;21.48;12.18;;;;;;;;;;6208598;28;20063;-68
2022/09/04 16:46:37;;;;;;;23.70;13.90;;;;;;;;;;6211197;28;20096;-64
2022/09/04 16:49:45;;;;;;;22.88;13.35;;;;;;;;;;6207768;28;20185;-66
2022/09/04 16:53:09;;;;;;;21.17;12.70;;;;;;;;;;6188963;28;20413;-61
2022/09/04 16:56:33;;;;;;;24.85;14.45;;;;;;;;;;6190109;28;20412;-63
2022/09/04 16:59:48;;;;;;;24.13;14.38;;;;;;;;;;6187507;28;20058;-61
2022/09/04 17:03:00;;;;;;;26.20;14.52;;;;;;;;;;6186002;28;20062;-65
2022/09/04 17:06:07;;;;;;;27.58;14.32;;;;;;;;;;6196993;28;20536;-70
2022/09/04 17:09:37;;;;;;;28.05;16.55;;;;;;;;;;6177091;28;20038;-66
2022/09/04 17:12:46;;;;;;;28.30;15.50;;;;;;;;;;6170433;28;20458;-66
2022/09/04 17:15:57;;;;;;;26.00;14.13;;;;;;;;;;6177234;28;20673;-73
2022/09/04 17:18:58;;;;;;;26.00;15.00;;;;;;;;;;6178391;28;20046;-70
2022/09/04 17:22:33;;;;;;;27.40;14.60;;;;;;;;;;6179995;28;20057;-65
2022/09/04 17:25:43;;;;;;;24.75;14.45;;;;;;;;;;6186277;28;20133;-55
2022/09/04 17:29:00;;;;;;;27.30;15.48;;;;;;;;;;6184367;28;20046;-61
2022/09/04 17:32:32;;;;;;;34.65;18.73;;;;;;;;;;6186546;28;20504;-61
2022/09/04 17:35:59;;;;;;;34.83;18.83;;;;;;;;;;6184662;28;20060;-60
2022/09/04 17:39:08;;;;;;;40.20;19.83;;;;;;;;;;6183127;28;20097;-53
2022/09/04 17:42:20;;;;;;;32.40;18.52;;;;;;;;;;6186485;28;20054;-61
2022/09/04 17:45:27;;;;;;;39.08;20.27;;;;;;;;;;6185520;28;20050;-60
2022/09/04 17:48:38;;;;;;;40.90;19.90;;;;;;;;;;6182128;28;20042;-56
2022/09/04 17:51:46;;;;;;;38.10;19.80;;;;;;;;;;6189683;28;20057;-54
2022/09/04 17:54:47;;;;;;;40.13;20.05;;;;;;;;;;6191465;28;20060;-55
2022/09/04 17:57:53;;;;;;;42.00;21.05;;;;;;;;;;6179383;28;20168;-54
2022/09/04 18:01:09;;;;;;;40.33;20.00;;;;;;;;;;6191337;28;20130;-55
2022/09/04 18:04:21;;;;;;;40.85;19.70;;;;;;;;;;6188579;28;20041;-62
2022/09/04 18:07:29;;;;;;;34.80;19.13;;;;;;;;;;6187315;28;20129;-61
2022/09/04 18:10:31;;;;;;;39.85;19.08;;;;;;;;;;6189219;28;20041;-59
2022/09/04 18:13:41;;;;;;;;;;;;;;;;;;6195624;28;20111;-54
2022/09/04 18:16:56;;;;;;;28.70;16.73;;;;;;;;;;6191452;28;19977;-58
2022/09/04 18:20:13;;;;;;;28.73;16.15;;;;;;;;;;6190264;28;20050;-61
2022/09/04 18:23:42;;;;;;;28.80;15.43;;;;;;;;;;6188196;28;20596;-62
2022/09/04 18:27:05;;;;;;;34.67;18.05;;;;;;;;;;6188521;28;20877;-58
2022/09/04 18:30:12;;;;;;;31.05;16.05;;;;;;;;;;6189251;28;20058;-60
2022/09/04 18:33:21;;;;;;;29.20;16.67;;;;;;;;;;6193072;28;20141;-58
2022/09/04 18:36:34;;;;;;;28.83;16.25;;;;;;;;;;6193323;28;20062;-60
2022/09/04 18:40:13;;;;;;;29.50;16.55;;;;;;;;;;6186413;28;20440;-60
2022/09/04 18:43:21;;;;;;;29.02;15.63;;;;;;;;;;6171146;28;20144;-59
2022/09/04 18:46:23;;;;;;;32.22;16.63;;;;;;;;;;6185327;28;20061;-64
2022/09/04 18:49:24;;;;;;;30.38;17.77;;;;;;;;;;6188078;28;20100;-62
2022/09/04 18:52:49;;;;;;;41.13;20.88;;;;;;;;;;6206838;28;20046;-60
2022/09/04 18:56:01;;;;;;;45.63;23.17;;;;;;;;;;6206883;28;20057;-62
2022/09/04 18:59:09;;;;;;;43.60;21.95;;;;;;;;;;6205128;28;20038;-61
2022/09/04 19:02:20;;;;;;;37.65;21.88;;;;;;;;;;6206173;28;20069;-62
2022/09/04 19:05:29;;;;;;;38.45;20.92;;;;;;;;;;6206452;28;20153;-62
2022/09/04 19:08:37;;;;;;;40.70;20.40;;;;;;;;;;6207800;28;20042;-60
2022/09/04 19:11:46;;;;;;;36.35;20.05;;;;;;;;;;6206986;28;20615;-61
2022/09/04 19:14:49;;;;;;;39.88;21.33;;;;;;;;;;6209555;28;20125;-66
2022/09/04 19:17:56;;;;;;;41.53;22.35;;;;;;;;;;6208767;28;20053;-63
2022/09/04 19:21:08;;;;;;;38.42;20.52;;;;;;;;;;6209459;28;20037;-62
2022/09/04 19:24:14;;;;;;;38.22;20.83;;;;;;;;;;6205345;28;20136;-62